Time;durP1;ratioP1;P1;durP2;ratioP2;P2;SDS_P1;SDS_P2;PMS_P1;PMS_P2;Temp;Humidity;BMP_temperature;BMP_pressure;BME280_temperature;BME280_humidity;BME280_pressure;Samples;Min_cycle;Max_cycle;Signal;HPM_P1;HPM_P2
2023/03/17 00:02:21;;;;;;;10.38;2.38;;;;;;;;;;5027233;28;20053;-65
2023/03/17 00:04:51;;;;;;;7.18;2.22;;;;;;;;;;5026858;28;20087;-65
2023/03/17 00:07:21;;;;;;;6.75;2.10;;;;;;;;;;5027704;28;20065;-60
2023/03/17 00:09:51;;;;;;;5.03;1.77;;;;;;;;;;5030055;28;20068;-65
2023/03/17 00:12:21;;;;;;;7.00;1.70;;;;;;;;;;4992875;28;20057;-60
2023/03/17 00:14:51;;;;;;;6.47;2.20;;;;;;;;;;4982119;28;20053;-68
2023/03/17 00:17:21;;;;;;;9.50;1.92;;;;;;;;;;5015027;28;20572;-63
2023/03/17 00:19:51;;;;;;;5.82;2.05;;;;;;;;;;5023030;28;20064;-68
2023/03/17 00:22:21;;;;;;;4.65;2.05;;;;;;;;;;5054269;28;20496;-67
2023/03/17 00:24:50;;;;;;;7.55;2.25;;;;;;;;;;5054266;28;20049;-71
2023/03/17 00:27:20;;;;;;;5.90;2.15;;;;;;;;;;5054580;28;20049;-64
2023/03/17 00:29:50;;;;;;;5.85;2.55;;;;;;;;;;5054212;28;20068;-69
2023/03/17 00:32:21;;;;;;;11.73;2.97;;;;;;;;;;4994456;28;20072;-67
2023/03/17 00:34:52;;;;;;;7.28;2.20;;;;;;;;;;4975068;28;20097;-66
2023/03/17 00:37:23;;;;;;;7.05;2.30;;;;;;;;;;4974917;28;20542;-67
2023/03/17 00:39:53;;;;;;;9.77;2.85;;;;;;;;;;4946768;28;20168;-63
2023/03/17 00:42:28;;;;;;;7.35;2.47;;;;;;;;;;4920869;29;20071;-75
2023/03/17 00:44:58;;;;;;;6.97;2.40;;;;;;;;;;4955422;28;20047;-68
2023/03/17 00:47:28;;;;;;;4.65;2.38;;;;;;;;;;4956232;28;20071;-65
2023/03/17 00:49:58;;;;;;;9.57;2.60;;;;;;;;;;4955568;28;20067;-64
2023/03/17 00:52:28;;;;;;;4.10;2.22;;;;;;;;;;4954909;28;20519;-66
2023/03/17 00:54:58;;;;;;;3.72;2.00;;;;;;;;;;4936687;29;20070;-64
2023/03/17 00:57:28;;;;;;;5.90;2.15;;;;;;;;;;4917464;29;20514;-66
2023/03/17 00:59:58;;;;;;;12.35;2.38;;;;;;;;;;4936483;28;20063;-66
2023/03/17 01:02:28;;;;;;;7.15;2.50;;;;;;;;;;4952341;28;20044;-70
2023/03/17 01:05:00;;;;;;;8.27;2.50;;;;;;;;;;4936150;29;20066;-60
2023/03/17 01:07:35;;;;;;;6.97;2.25;;;;;;;;;;4920239;29;20077;-71
2023/03/17 01:10:15;;;;;;;4.90;2.20;;;;;;;;;;4964375;28;20069;-67
2023/03/17 01:12:45;;;;;;;6.20;2.33;;;;;;;;;;4955396;28;20074;-68
2023/03/17 01:15:16;;;;;;;5.07;2.40;;;;;;;;;;4978228;28;20062;-64
2023/03/17 01:17:49;;;;;;;7.53;2.25;;;;;;;;;;4945826;28;20065;-60
2023/03/17 01:20:23;;;;;;;4.72;2.22;;;;;;;;;;4995126;28;20187;-62
2023/03/17 01:22:54;;;;;;;5.68;2.25;;;;;;;;;;4947776;28;20051;-68
2023/03/17 01:25:26;;;;;;;7.13;2.33;;;;;;;;;;4933046;29;20059;-61
2023/03/17 01:27:58;;;;;;;6.80;2.30;;;;;;;;;;4933495;29;20467;-64
2023/03/17 01:30:32;;;;;;;7.53;2.00;;;;;;;;;;4952313;28;20059;-68
2023/03/17 01:33:02;;;;;;;7.13;2.38;;;;;;;;;;4965297;28;20062;-62
2023/03/17 01:35:35;;;;;;;6.53;2.00;;;;;;;;;;4971766;28;20063;-67
2023/03/17 01:38:05;;;;;;;5.22;1.98;;;;;;;;;;4933495;29;20067;-62
2023/03/17 01:40:41;;;;;;;6.57;2.58;;;;;;;;;;4933608;29;20432;-69
2023/03/17 01:43:11;;;;;;;8.18;2.17;;;;;;;;;;4933719;29;20052;-64
2023/03/17 01:46:17;;;;;;;7.15;2.22;;;;;;;;;;4955203;28;20052;-64
2023/03/17 01:48:52;;;;;;;3.67;1.80;;;;;;;;;;4968080;28;20455;-62
2023/03/17 01:51:36;;;;;;;5.63;1.92;;;;;;;;;;4980696;28;20413;-61
2023/03/17 01:54:10;;;;;;;5.20;2.03;;;;;;;;;;4959235;28;20510;-67
2023/03/17 01:56:43;;;;;;;7.60;2.10;;;;;;;;;;4991461;28;20061;-72
2023/03/17 01:59:19;;;;;;;5.43;2.40;;;;;;;;;;4952460;29;20091;-71
2023/03/17 02:01:53;;;;;;;7.05;2.10;;;;;;;;;;4971873;28;20058;-64
2023/03/17 02:04:25;;;;;;;5.60;2.15;;;;;;;;;;4987491;28;20065;-63
2023/03/17 02:06:56;;;;;;;5.45;1.80;;;;;;;;;;4955520;28;20058;-64
2023/03/17 02:09:27;;;;;;;6.38;2.50;;;;;;;;;;4933551;29;20098;-65
2023/03/17 02:11:59;;;;;;;5.63;2.40;;;;;;;;;;4949050;28;20060;-61
2023/03/17 02:14:29;;;;;;;;;;;;;;;;;;4930498;29;20572;-64
2023/03/17 02:16:58;;;;;;;6.63;2.22;;;;;;;;;;4952586;29;20298;-63
2023/03/17 02:19:29;;;;;;;4.10;1.88;;;;;;;;;;4920493;29;20056;-60
2023/03/17 02:22:00;;;;;;;8.07;2.30;;;;;;;;;;4904762;28;20098;-66
2023/03/17 02:24:38;;;;;;;5.65;2.28;;;;;;;;;;4989857;28;20425;-66
2023/03/17 02:27:16;;;;;;;7.28;2.05;;;;;;;;;;4991103;28;20055;-65
2023/03/17 02:29:46;;;;;;;4.68;1.80;;;;;;;;;;4952072;28;20047;-65
2023/03/17 02:32:18;;;;;;;5.45;2.20;;;;;;;;;;4951939;28;20059;-62
2023/03/17 02:34:48;;;;;;;4.07;2.05;;;;;;;;;;4951373;28;20063;-66
2023/03/17 02:37:19;;;;;;;6.63;2.20;;;;;;;;;;4978302;28;20055;-67
2023/03/17 02:39:49;;;;;;;12.30;2.22;;;;;;;;;;4990728;28;20054;-64
2023/03/17 02:42:19;;;;;;;4.68;1.83;;;;;;;;;;4970852;28;20070;-67
2023/03/17 02:44:50;;;;;;;5.97;2.05;;;;;;;;;;4941764;28;20061;-68
2023/03/17 02:47:20;;;;;;;5.10;1.88;;;;;;;;;;4954720;28;20053;-64
2023/03/17 02:49:51;;;;;;;3.58;1.88;;;;;;;;;;4971133;28;20063;-69
2023/03/17 02:52:21;;;;;;;4.60;1.90;;;;;;;;;;4971110;28;20058;-64
2023/03/17 02:54:51;;;;;;;6.88;2.20;;;;;;;;;;4986505;28;20054;-60
2023/03/17 02:57:22;;;;;;;6.82;2.13;;;;;;;;;;4986645;28;20499;-68
2023/03/17 02:59:51;;;;;;;5.57;2.05;;;;;;;;;;4970479;28;20054;-66
2023/03/17 03:02:22;;;;;;;6.70;1.83;;;;;;;;;;4938717;28;20055;-76
2023/03/17 03:04:53;;;;;;;4.60;1.90;;;;;;;;;;4954204;28;20058;-64
2023/03/17 03:07:22;;;;;;;4.35;1.95;;;;;;;;;;4979935;28;20053;-62
2023/03/17 03:09:52;;;;;;;7.57;2.20;;;;;;;;;;4989940;28;20042;-68
2023/03/17 03:12:22;;;;;;;5.57;1.80;;;;;;;;;;4990185;28;20061;-60
2023/03/17 03:14:52;;;;;;;4.70;1.73;;;;;;;;;;4957697;28;20050;-64
2023/03/17 03:17:22;;;;;;;6.93;2.10;;;;;;;;;;4989915;28;20527;-65
2023/03/17 03:19:51;;;;;;;4.25;1.80;;;;;;;;;;5007949;28;20409;-69
2023/03/17 03:22:21;;;;;;;4.68;2.47;;;;;;;;;;4996542;28;20553;-70
2023/03/17 03:24:51;;;;;;;4.05;2.15;;;;;;;;;;5018057;28;20061;-65
2023/03/17 03:27:21;;;;;;;4.35;2.30;;;;;;;;;;5031538;28;20037;-67
2023/03/17 03:29:50;;;;;;;7.35;2.30;;;;;;;;;;5031440;28;20041;-61
2023/03/17 03:32:20;;;;;;;6.53;2.10;;;;;;;;;;5068457;28;20053;-64
2023/03/17 03:34:50;;;;;;;7.38;2.20;;;;;;;;;;5068817;28;20064;-64
2023/03/17 03:37:21;;;;;;;5.93;2.22;;;;;;;;;;5019409;28;20056;-71
2023/03/17 03:39:51;;;;;;;7.40;2.08;;;;;;;;;;5035619;28;20069;-65
2023/03/17 03:42:21;;;;;;;9.07;2.28;;;;;;;;;;5069040;28;20044;-64
2023/03/17 03:44:51;;;;;;;4.32;1.98;;;;;;;;;;5035135;28;20075;-64
2023/03/17 03:47:21;;;;;;;6.65;2.10;;;;;;;;;;5068690;28;20479;-65
2023/03/17 03:49:51;;;;;;;7.22;2.15;;;;;;;;;;5068613;28;20056;-66
2023/03/17 03:52:21;;;;;;;7.25;2.78;;;;;;;;;;5069061;28;20060;-64
2023/03/17 03:54:50;;;;;;;5.47;2.25;;;;;;;;;;5068905;28;20041;-67
2023/03/17 03:57:20;;;;;;;4.63;2.33;;;;;;;;;;5068826;28;20060;-63
2023/03/17 03:59:50;;;;;;;10.35;2.33;;;;;;;;;;5018871;28;20065;-64
2023/03/17 04:02:20;;;;;;;4.97;2.17;;;;;;;;;;5068479;28;20149;-63
2023/03/17 04:04:50;;;;;;;3.88;2.00;;;;;;;;;;5085044;28;20165;-67
2023/03/17 04:07:20;;;;;;;6.50;2.33;;;;;;;;;;5018962;28;20060;-66
2023/03/17 04:09:50;;;;;;;5.25;2.20;;;;;;;;;;5017720;28;20540;-80
2023/03/17 04:12:20;;;;;;;5.40;2.08;;;;;;;;;;5028610;28;20064;-64
2023/03/17 04:14:50;;;;;;;6.30;2.30;;;;;;;;;;5028776;28;20413;-65
2023/03/17 04:17:19;;;;;;;7.32;2.60;;;;;;;;;;5028869;28;20528;-66
2023/03/17 04:19:50;;;;;;;4.90;2.35;;;;;;;;;;5028420;28;20057;-60
2023/03/17 04:22:20;;;;;;;8.63;2.45;;;;;;;;;;5028147;28;20158;-63
2023/03/17 04:24:50;;;;;;;5.40;2.08;;;;;;;;;;5029616;28;20053;-67
2023/03/17 04:27:20;;;;;;;6.35;2.60;;;;;;;;;;5030892;28;20045;-68
2023/03/17 04:29:51;;;;;;;6.15;2.80;;;;;;;;;;5027827;28;20060;-66
2023/03/17 04:32:21;;;;;;;5.07;2.10;;;;;;;;;;5031039;28;20490;-63
2023/03/17 04:34:54;;;;;;;6.13;2.03;;;;;;;;;;5029004;28;20056;-64
2023/03/17 04:37:25;;;;;;;7.20;1.90;;;;;;;;;;5030672;28;20046;-62
2023/03/17 04:39:55;;;;;;;6.03;2.22;;;;;;;;;;5030990;28;20486;-64
2023/03/17 04:42:24;;;;;;;5.50;1.90;;;;;;;;;;5045007;28;20060;-63
2023/03/17 04:44:54;;;;;;;5.28;1.98;;;;;;;;;;5030722;28;20080;-69
2023/03/17 04:47:25;;;;;;;5.68;1.98;;;;;;;;;;5030559;28;20046;-65
2023/03/17 04:49:54;;;;;;;4.15;1.98;;;;;;;;;;5030807;28;20052;-72
2023/03/17 04:52:24;;;;;;;5.85;1.98;;;;;;;;;;5030555;28;20052;-66
2023/03/17 04:54:54;;;;;;;5.35;2.00;;;;;;;;;;5030739;28;20052;-71
2023/03/17 04:57:24;;;;;;;7.65;2.65;;;;;;;;;;5032604;28;20501;-64
2023/03/17 04:59:54;;;;;;;9.10;1.77;;;;;;;;;;5034565;28;20045;-62
2023/03/17 05:02:25;;;;;;;4.20;1.70;;;;;;;;;;5033972;28;20057;-69
2023/03/17 05:04:54;;;;;;;9.85;2.08;;;;;;;;;;5034018;28;20057;-68
2023/03/17 05:07:24;;;;;;;6.00;2.15;;;;;;;;;;5034246;28;20540;-63
2023/03/17 05:09:54;;;;;;;5.20;2.20;;;;;;;;;;5015505;28;20524;-64
2023/03/17 05:12:24;;;;;;;6.07;1.73;;;;;;;;;;5034219;28;20046;-67
2023/03/17 05:14:54;;;;;;;6.10;2.50;;;;;;;;;;5034372;28;20037;-64
2023/03/17 05:17:24;;;;;;;8.00;2.03;;;;;;;;;;5034097;28;20485;-64
2023/03/17 05:19:54;;;;;;;3.70;1.83;;;;;;;;;;5033922;28;20395;-64
2023/03/17 05:22:25;;;;;;;6.50;2.10;;;;;;;;;;5031843;28;20696;-67
2023/03/17 05:24:55;;;;;;;6.00;1.90;;;;;;;;;;5033715;28;20037;-60
2023/03/17 05:27:25;;;;;;;4.05;1.80;;;;;;;;;;5070958;28;20151;-62
2023/03/17 05:29:55;;;;;;;3.58;2.08;;;;;;;;;;5071546;28;20627;-70
2023/03/17 05:32:25;;;;;;;5.20;1.90;;;;;;;;;;5111616;28;20055;-59
2023/03/17 05:34:56;;;;;;;5.25;1.92;;;;;;;;;;5111900;28;20052;-62
2023/03/17 05:37:25;;;;;;;5.05;1.70;;;;;;;;;;5111692;28;20074;-66
2023/03/17 05:39:55;;;;;;;4.53;1.77;;;;;;;;;;5077845;28;20062;-63
2023/03/17 05:42:25;;;;;;;4.72;1.60;;;;;;;;;;5111776;28;20529;-66
2023/03/17 05:44:55;;;;;;;3.45;1.52;;;;;;;;;;5111540;28;20056;-65
2023/03/17 05:47:24;;;;;;;6.40;1.52;;;;;;;;;;5111770;28;20059;-62
2023/03/17 05:49:54;;;;;;;4.88;1.73;;;;;;;;;;5077932;28;20594;-64
2023/03/17 05:52:25;;;;;;;8.60;1.40;;;;;;;;;;5111086;28;20503;-76
2023/03/17 05:54:56;;;;;;;7.70;1.80;;;;;;;;;;5111517;28;20054;-66
2023/03/17 05:57:26;;;;;;;4.35;1.42;;;;;;;;;;5090987;28;20064;-61
2023/03/17 05:59:56;;;;;;;3.97;1.60;;;;;;;;;;5070421;28;20056;-63
2023/03/17 06:02:26;;;;;;;4.00;1.55;;;;;;;;;;5070643;28;20583;-63
2023/03/17 06:04:56;;;;;;;6.68;1.83;;;;;;;;;;5060825;28;20512;-63
2023/03/17 06:07:26;;;;;;;4.38;1.63;;;;;;;;;;5050085;28;20060;-71
2023/03/17 06:10:16;;;;;;;5.20;1.70;;;;;;;;;;5027165;28;20069;-63
2023/03/17 06:12:48;;;;;;;5.60;1.42;;;;;;;;;;4978964;28;20061;-67
2023/03/17 06:15:18;;;;;;;9.43;2.67;;;;;;;;;;5010566;28;20061;-64
2023/03/17 06:17:48;;;;;;;4.90;1.77;;;;;;;;;;5010356;28;20057;-62
2023/03/17 06:20:18;;;;;;;6.25;1.70;;;;;;;;;;5010488;28;20086;-66
2023/03/17 06:22:48;;;;;;;5.75;1.58;;;;;;;;;;4994220;28;20529;-64
2023/03/17 06:25:33;;;;;;;5.85;1.80;;;;;;;;;;5010673;28;20061;-63
2023/03/17 06:28:04;;;;;;;6.25;2.15;;;;;;;;;;5049670;28;20049;-67
2023/03/17 06:30:35;;;;;;;3.28;1.60;;;;;;;;;;5033403;28;20053;-61
2023/03/17 06:33:08;;;;;;;3.70;1.95;;;;;;;;;;5049696;28;20052;-65
2023/03/17 06:35:38;;;;;;;8.85;1.77;;;;;;;;;;5050229;28;20048;-62
2023/03/17 06:38:08;;;;;;;5.28;1.70;;;;;;;;;;5064502;28;20060;-58
2023/03/17 06:40:38;;;;;;;7.90;2.13;;;;;;;;;;5053933;28;20063;-68
2023/03/17 06:43:08;;;;;;;6.35;2.53;;;;;;;;;;5069715;28;20500;-63
2023/03/17 06:45:37;;;;;;;4.90;2.00;;;;;;;;;;5069883;28;20072;-74
2023/03/17 06:48:08;;;;;;;10.93;2.03;;;;;;;;;;5016388;28;20755;-60
2023/03/17 06:50:38;;;;;;;10.88;2.33;;;;;;;;;;5049640;28;20421;-67
2023/03/17 06:53:07;;;;;;;8.38;2.28;;;;;;;;;;5049612;28;20547;-74
2023/03/17 06:55:37;;;;;;;7.05;2.30;;;;;;;;;;5049859;28;20045;-63
2023/03/17 06:58:09;;;;;;;6.93;2.03;;;;;;;;;;5049655;28;20048;-63
2023/03/17 07:00:38;;;;;;;;;;;;;;;;;;5029728;28;20056;-63
2023/03/17 07:03:08;;;;;;;5.65;2.33;;;;;;;;;;5029400;28;19928;-61
2023/03/17 07:05:39;;;;;;;5.55;2.17;;;;;;;;;;4961120;28;20060;-63
2023/03/17 07:08:09;;;;;;;5.75;2.85;;;;;;;;;;4990174;28;20494;-62
2023/03/17 07:10:42;;;;;;;5.72;2.35;;;;;;;;;;4990259;28;20446;-59
2023/03/17 07:13:12;;;;;;;7.57;2.50;;;;;;;;;;4990068;28;20062;-59
2023/03/17 07:15:44;;;;;;;7.07;2.17;;;;;;;;;;4989819;28;20058;-60
2023/03/17 07:18:15;;;;;;;6.88;2.30;;;;;;;;;;4989913;28;20100;-62
2023/03/17 07:20:48;;;;;;;5.68;2.60;;;;;;;;;;4941034;28;20752;-63
2023/03/17 07:23:21;;;;;;;6.97;2.63;;;;;;;;;;4989929;28;20047;-63
2023/03/17 07:25:51;;;;;;;8.15;2.40;;;;;;;;;;4941638;28;20062;-63
2023/03/17 07:28:22;;;;;;;4.20;2.20;;;;;;;;;;4957428;28;20502;-63
2023/03/17 07:30:56;;;;;;;7.90;2.45;;;;;;;;;;4941504;28;20074;-66
2023/03/17 07:33:26;;;;;;;4.63;2.42;;;;;;;;;;4938119;28;20078;-62
2023/03/17 07:35:56;;;;;;;8.30;3.08;;;;;;;;;;4970076;28;20530;-61
2023/03/17 07:38:27;;;;;;;5.25;2.40;;;;;;;;;;4981350;28;20061;-62
2023/03/17 07:40:57;;;;;;;7.25;2.78;;;;;;;;;;4989569;28;20061;-59
2023/03/17 07:43:27;;;;;;;5.45;2.25;;;;;;;;;;4989616;28;20061;-67
2023/03/17 07:45:57;;;;;;;4.22;2.50;;;;;;;;;;5005086;28;20054;-65
2023/03/17 07:48:27;;;;;;;5.93;3.45;;;;;;;;;;4957329;28;20805;-61
2023/03/17 07:50:57;;;;;;;5.60;2.33;;;;;;;;;;5000144;28;20058;-65
2023/03/17 07:53:28;;;;;;;6.50;2.60;;;;;;;;;;5008763;28;20053;-60
2023/03/17 07:55:58;;;;;;;4.70;2.35;;;;;;;;;;5008978;28;20050;-63
2023/03/17 07:58:28;;;;;;;5.65;2.58;;;;;;;;;;4976533;28;20050;-65
2023/03/17 08:00:58;;;;;;;4.25;2.30;;;;;;;;;;4960393;28;20053;-68
2023/03/17 08:03:29;;;;;;;9.23;2.63;;;;;;;;;;4976252;28;20126;-66
2023/03/17 08:06:00;;;;;;;9.05;2.33;;;;;;;;;;5008829;28;20501;-63
2023/03/17 08:08:29;;;;;;;5.85;2.17;;;;;;;;;;5009034;28;20565;-62
2023/03/17 08:11:04;;;;;;;8.30;2.63;;;;;;;;;;5019051;28;20091;-70
2023/03/17 08:13:35;;;;;;;5.85;2.50;;;;;;;;;;5031216;28;20068;-58
2023/03/17 08:16:06;;;;;;;4.20;2.35;;;;;;;;;;4979908;28;20090;-60
2023/03/17 08:18:37;;;;;;;4.85;2.30;;;;;;;;;;5031049;28;20481;-63
2023/03/17 08:21:07;;;;;;;9.93;3.13;;;;;;;;;;5030854;28;20393;-66
2023/03/17 08:23:37;;;;;;;6.78;2.63;;;;;;;;;;5031249;28;20045;-64
2023/03/17 08:26:08;;;;;;;11.02;2.92;;;;;;;;;;5030649;28;20041;-62
2023/03/17 08:28:38;;;;;;;5.88;2.72;;;;;;;;;;5061588;28;20049;-68
2023/03/17 08:31:15;;;;;;;7.03;3.17;;;;;;;;;;5032652;28;20049;-63
2023/03/17 08:33:51;;;;;;;10.70;3.70;;;;;;;;;;5035199;28;20042;-61
2023/03/17 08:36:22;;;;;;;6.22;3.38;;;;;;;;;;5034632;28;20061;-66
2023/03/17 08:38:56;;;;;;;6.45;3.20;;;;;;;;;;5055723;28;20048;-63
2023/03/17 08:41:27;;;;;;;9.05;3.15;;;;;;;;;;5035632;28;20205;-64
2023/03/17 08:43:58;;;;;;;7.25;3.17;;;;;;;;;;5052266;28;20113;-63
2023/03/17 08:46:32;;;;;;;8.23;3.25;;;;;;;;;;5051878;28;20056;-62
2023/03/17 08:49:03;;;;;;;7.15;3.47;;;;;;;;;;5031762;28;20603;-63
2023/03/17 08:51:35;;;;;;;7.35;3.63;;;;;;;;;;4983112;28;20417;-61
2023/03/17 08:54:06;;;;;;;8.40;3.65;;;;;;;;;;4976073;28;20458;-65
2023/03/17 08:56:37;;;;;;;7.43;3.05;;;;;;;;;;4976075;28;20066;-62
2023/03/17 08:59:08;;;;;;;8.48;3.47;;;;;;;;;;4992432;28;20062;-63
2023/03/17 09:01:39;;;;;;;11.50;3.70;;;;;;;;;;4992460;28;20058;-65
2023/03/17 09:04:09;;;;;;;7.18;3.45;;;;;;;;;;4992216;28;20533;-65
2023/03/17 09:06:40;;;;;;;6.78;3.20;;;;;;;;;;4992329;28;20062;-71
2023/03/17 09:09:30;;;;;;;10.40;3.72;;;;;;;;;;4972595;28;20403;-63
2023/03/17 09:12:03;;;;;;;8.02;3.33;;;;;;;;;;4953142;28;20407;-70
2023/03/17 09:14:34;;;;;;;7.13;3.20;;;;;;;;;;4953174;28;20063;-64
2023/03/17 09:17:13;;;;;;;4.85;2.97;;;;;;;;;;4905668;29;20063;-66
2023/03/17 09:19:43;;;;;;;6.00;3.58;;;;;;;;;;4948538;28;20064;-63
2023/03/17 09:22:15;;;;;;;6.43;3.38;;;;;;;;;;4936813;28;20523;-63
2023/03/17 09:24:45;;;;;;;6.18;3.13;;;;;;;;;;4960180;28;20062;-68
2023/03/17 09:27:15;;;;;;;8.27;3.22;;;;;;;;;;4950447;28;20431;-81
2023/03/17 09:29:45;;;;;;;5.55;3.22;;;;;;;;;;4966501;28;20066;-65
2023/03/17 09:32:16;;;;;;;7.65;3.33;;;;;;;;;;4957616;28;20551;-63
2023/03/17 09:34:46;;;;;;;6.97;3.17;;;;;;;;;;4916503;29;20623;-68
2023/03/17 09:37:19;;;;;;;6.75;3.20;;;;;;;;;;4920320;29;20113;-64
2023/03/17 09:39:49;;;;;;;5.97;3.25;;;;;;;;;;4953939;28;20051;-61
2023/03/17 09:42:42;;;;;;;5.35;3.00;;;;;;;;;;4969767;28;20054;-64
2023/03/17 09:45:15;;;;;;;6.28;3.10;;;;;;;;;;4969128;28;20054;-73
2023/03/17 09:48:05;;;;;;;6.90;3.20;;;;;;;;;;4969410;28;20550;-65
2023/03/17 09:50:43;;;;;;;7.78;3.40;;;;;;;;;;4897192;29;20071;-67
2023/03/17 09:53:24;;;;;;;9.02;3.88;;;;;;;;;;4933222;29;20072;-62
2023/03/17 09:55:57;;;;;;;5.78;3.13;;;;;;;;;;4951444;29;20055;-63
2023/03/17 09:58:34;;;;;;;;;;;;;;;;;;4920362;29;20086;-63
2023/03/17 10:01:04;;;;;;;12.00;3.92;;;;;;;;;;4904982;29;19922;-63
2023/03/17 10:03:36;;;;;;;6.72;3.70;;;;;;;;;;4932666;29;20063;-75
2023/03/17 10:06:32;;;;;;;7.57;3.63;;;;;;;;;;4917497;29;20059;-65
2023/03/17 10:09:02;;;;;;;9.10;3.63;;;;;;;;;;4932925;29;20064;-63
2023/03/17 10:11:37;;;;;;;8.52;3.80;;;;;;;;;;4974805;28;20074;-68
2023/03/17 10:14:48;;;;;;;6.72;3.50;;;;;;;;;;4958476;28;20067;-64
2023/03/17 10:17:28;;;;;;;8.52;3.97;;;;;;;;;;4990810;28;20050;-68
2023/03/17 10:20:14;;;;;;;8.70;3.33;;;;;;;;;;4990546;28;20502;-64
2023/03/17 10:22:54;;;;;;;7.13;3.30;;;;;;;;;;4990410;28;20062;-66
2023/03/17 10:25:28;;;;;;;6.63;3.13;;;;;;;;;;4957677;28;20517;-65
2023/03/17 10:28:25;;;;;;;6.75;3.45;;;;;;;;;;5023567;28;20543;-69
2023/03/17 10:31:05;;;;;;;6.90;3.20;;;;;;;;;;5032852;28;20057;-67
2023/03/17 10:33:36;;;;;;;7.15;3.03;;;;;;;;;;5016615;28;20567;-67
2023/03/17 10:36:09;;;;;;;5.07;2.80;;;;;;;;;;5049491;28;20052;-72
2023/03/17 10:38:40;;;;;;;6.57;2.95;;;;;;;;;;5049652;28;20056;-65
2023/03/17 10:41:15;;;;;;;5.28;2.83;;;;;;;;;;5050369;28;20406;-64
2023/03/17 10:43:52;;;;;;;7.07;2.92;;;;;;;;;;5051785;28;20037;-69
2023/03/17 10:46:24;;;;;;;5.68;3.10;;;;;;;;;;5051018;28;20416;-64
2023/03/17 10:49:06;;;;;;;3.85;2.30;;;;;;;;;;5050076;28;20048;-66
2023/03/17 10:51:39;;;;;;;7.15;2.60;;;;;;;;;;5052208;28;20041;-69
2023/03/17 10:54:19;;;;;;;6.22;2.58;;;;;;;;;;5028637;28;20053;-72
2023/03/17 10:56:54;;;;;;;5.30;2.53;;;;;;;;;;5029555;28;20053;-63
2023/03/17 10:59:31;;;;;;;4.55;2.35;;;;;;;;;;4980671;28;20049;-64
2023/03/17 11:02:19;;;;;;;4.68;1.92;;;;;;;;;;4980841;28;20057;-60
2023/03/17 11:04:49;;;;;;;3.65;2.03;;;;;;;;;;5029430;28;20049;-61
2023/03/17 11:07:26;;;;;;;5.60;2.20;;;;;;;;;;5029699;28;20060;-64
2023/03/17 11:10:02;;;;;;;5.72;2.28;;;;;;;;;;5029175;28;20053;-64
2023/03/17 11:12:39;;;;;;;6.78;2.13;;;;;;;;;;5029363;28;20065;-66
2023/03/17 11:15:16;;;;;;;3.90;2.42;;;;;;;;;;4980134;28;20061;-66
2023/03/17 11:17:55;;;;;;;6.10;2.80;;;;;;;;;;5027615;28;20401;-65
2023/03/17 11:20:35;;;;;;;3.50;1.95;;;;;;;;;;5028030;28;20048;-64
2023/03/17 11:23:40;;;;;;;5.03;2.20;;;;;;;;;;5028917;28;20045;-62
2023/03/17 11:26:28;;;;;;;4.97;2.08;;;;;;;;;;5058740;28;20052;-67
2023/03/17 11:29:22;;;;;;;4.05;2.90;;;;;;;;;;5049030;28;20048;-62
2023/03/17 11:31:57;;;;;;;5.57;2.40;;;;;;;;;;5015953;28;20057;-66
2023/03/17 11:35:07;;;;;;;5.05;2.00;;;;;;;;;;5048698;28;20497;-68
2023/03/17 11:38:13;;;;;;;3.67;2.25;;;;;;;;;;5048756;28;20071;-65
2023/03/17 11:41:07;;;;;;;3.67;2.10;;;;;;;;;;5048905;28;20061;-67
2023/03/17 11:43:57;;;;;;;4.35;1.75;;;;;;;;;;5016096;28;20060;-70
2023/03/17 11:46:35;;;;;;;3.33;1.95;;;;;;;;;;5060054;28;20098;-69
2023/03/17 11:49:27;;;;;;;3.58;1.90;;;;;;;;;;4983148;28;20056;-66
2023/03/17 11:52:11;;;;;;;3.72;1.63;;;;;;;;;;5036977;28;20061;-68
2023/03/17 11:54:52;;;;;;;;;;;;;;;;;;4980179;28;20068;-67
2023/03/17 11:57:55;;;;;;;3.90;1.85;;;;;;;;;;5028415;28;19932;-62
2023/03/17 12:00:38;;;;;;;3.47;2.05;;;;;;;;;;5044280;28;20049;-61
2023/03/17 12:03:25;;;;;;;3.15;1.73;;;;;;;;;;5027623;28;20061;-67
2023/03/17 12:05:59;;;;;;;2.50;1.60;;;;;;;;;;5028008;28;20054;-66
2023/03/17 12:08:38;;;;;;;3.00;1.38;;;;;;;;;;5023897;28;20042;-65
2023/03/17 12:11:15;;;;;;;3.53;1.90;;;;;;;;;;5007712;28;20889;-61
2023/03/17 12:13:55;;;;;;;4.18;1.95;;;;;;;;;;4991649;28;20050;-64
2023/03/17 12:16:28;;;;;;;5.00;1.55;;;;;;;;;;5008136;28;20062;-65
2023/03/17 12:19:24;;;;;;;2.88;1.40;;;;;;;;;;5024469;28;20068;-66
2023/03/17 12:21:58;;;;;;;3.03;2.10;;;;;;;;;;4988387;28;20418;-61
2023/03/17 12:24:36;;;;;;;2.72;1.55;;;;;;;;;;4988539;28;20076;-59
2023/03/17 12:27:15;;;;;;;3.85;1.73;;;;;;;;;;4988284;28;20418;-63
2023/03/17 12:29:56;;;;;;;2.60;1.50;;;;;;;;;;4956737;28;20081;-66
2023/03/17 12:32:47;;;;;;;2.05;1.27;;;;;;;;;;4966948;28;20054;-63
2023/03/17 12:35:37;;;;;;;3.17;1.83;;;;;;;;;;5007213;28;20038;-61
2023/03/17 12:38:34;;;;;;;2.13;1.33;;;;;;;;;;5016265;28;20054;-60
2023/03/17 12:41:41;;;;;;;3.15;1.50;;;;;;;;;;5022916;28;20061;-63
2023/03/17 12:44:47;;;;;;;3.38;1.65;;;;;;;;;;5008069;28;20398;-64
2023/03/17 12:47:22;;;;;;;3.20;1.65;;;;;;;;;;5031825;28;20061;-64
2023/03/17 12:50:04;;;;;;;2.60;1.73;;;;;;;;;;5031035;28;20037;-62
2023/03/17 12:52:58;;;;;;;4.63;2.30;;;;;;;;;;5039389;28;20402;-64
2023/03/17 12:55:31;;;;;;;4.95;1.63;;;;;;;;;;5047553;28;20428;-60
2023/03/17 12:58:16;;;;;;;3.00;1.65;;;;;;;;;;5007854;28;20054;-64
2023/03/17 13:01:02;;;;;;;3.22;1.50;;;;;;;;;;4994803;28;20424;-65
2023/03/17 13:03:35;;;;;;;2.88;1.20;;;;;;;;;;5027236;28;20061;-64
2023/03/17 13:06:15;;;;;;;3.38;1.80;;;;;;;;;;4978828;28;20061;-64
2023/03/17 13:08:45;;;;;;;3.58;1.52;;;;;;;;;;5027689;28;20057;-63
2023/03/17 13:11:36;;;;;;;2.78;1.30;;;;;;;;;;5027640;28;20054;-60
2023/03/17 13:14:16;;;;;;;2.03;1.50;;;;;;;;;;5010562;28;20528;-65
2023/03/17 13:16:49;;;;;;;4.30;1.52;;;;;;;;;;4995602;28;20061;-64
2023/03/17 13:19:26;;;;;;;2.67;1.70;;;;;;;;;;4990691;28;20061;-64
2023/03/17 13:22:04;;;;;;;4.38;1.40;;;;;;;;;;4991940;28;20054;-62
2023/03/17 13:24:50;;;;;;;4.38;1.60;;;;;;;;;;4974858;28;20089;-63
2023/03/17 13:27:32;;;;;;;4.68;1.55;;;;;;;;;;4991315;28;20518;-62
2023/03/17 13:30:25;;;;;;;4.55;1.50;;;;;;;;;;4991725;28;20057;-61
2023/03/17 13:33:02;;;;;;;3.83;1.42;;;;;;;;;;4904539;29;20670;-68
2023/03/17 13:35:41;;;;;;;2.63;1.58;;;;;;;;;;4961421;28;20507;-62
2023/03/17 13:38:31;;;;;;;4.70;1.30;;;;;;;;;;4971650;28;20058;-66
2023/03/17 13:41:30;;;;;;;2.45;1.30;;;;;;;;;;4972342;28;20066;-67
2023/03/17 13:44:14;;;;;;;3.30;1.73;;;;;;;;;;4939677;28;20060;-62
2023/03/17 13:46:46;;;;;;;2.30;1.20;;;;;;;;;;4971920;28;20058;-68
2023/03/17 13:49:23;;;;;;;3.63;1.40;;;;;;;;;;4971854;28;20092;-60
2023/03/17 13:52:10;;;;;;;1.83;1.20;;;;;;;;;;4971597;28;20047;-63
2023/03/17 13:55:19;;;;;;;3.70;1.80;;;;;;;;;;4990589;28;20055;-64
2023/03/17 13:58:07;;;;;;;4.03;1.50;;;;;;;;;;4989134;28;20058;-67
2023/03/17 14:00:56;;;;;;;3.33;1.55;;;;;;;;;;4989894;28;20065;-64
2023/03/17 14:03:46;;;;;;;2.70;1.58;;;;;;;;;;4987529;28;20061;-62
2023/03/17 14:06:21;;;;;;;3.08;1.30;;;;;;;;;;4991462;28;20053;-70
2023/03/17 14:09:01;;;;;;;2.15;1.35;;;;;;;;;;4991075;28;20066;-69
2023/03/17 14:11:39;;;;;;;4.97;1.63;;;;;;;;;;5007191;28;20058;-64
2023/03/17 14:14:48;;;;;;;4.95;1.50;;;;;;;;;;4991263;28;20057;-65
2023/03/17 14:17:53;;;;;;;5.28;1.80;;;;;;;;;;4972039;28;20426;-65
2023/03/17 14:20:25;;;;;;;3.00;1.33;;;;;;;;;;4898368;29;20588;-66
2023/03/17 14:23:01;;;;;;;3.60;1.27;;;;;;;;;;4898046;29;20056;-64
2023/03/17 14:25:38;;;;;;;3.50;1.40;;;;;;;;;;4927779;29;20051;-64
2023/03/17 14:28:14;;;;;;;2.88;1.42;;;;;;;;;;4952003;28;20656;-60
2023/03/17 14:30:59;;;;;;;2.58;1.25;;;;;;;;;;4952500;29;20428;-68
2023/03/17 14:33:40;;;;;;;2.42;1.52;;;;;;;;;;4952358;29;20074;-64
2023/03/17 14:36:12;;;;;;;3.83;1.30;;;;;;;;;;4948389;29;20520;-64
2023/03/17 14:38:50;;;;;;;3.58;1.20;;;;;;;;;;4932915;29;20055;-64
2023/03/17 14:41:25;;;;;;;3.85;1.55;;;;;;;;;;4901528;29;20084;-64
2023/03/17 14:44:00;;;;;;;1.70;0.95;;;;;;;;;;4908333;29;20051;-64
2023/03/17 14:46:39;;;;;;;2.00;1.20;;;;;;;;;;4947169;29;20055;-63
2023/03/17 14:49:18;;;;;;;1.42;1.05;;;;;;;;;;4931373;29;20063;-61
2023/03/17 14:51:52;;;;;;;3.03;1.30;;;;;;;;;;4884385;29;20195;-66
2023/03/17 14:54:33;;;;;;;1.58;1.02;;;;;;;;;;4932151;29;20060;-60
2023/03/17 14:57:12;;;;;;;2.38;1.02;;;;;;;;;;4918729;28;20526;-60
2023/03/17 14:59:55;;;;;;;4.45;1.73;;;;;;;;;;4969714;28;20066;-65
2023/03/17 15:02:34;;;;;;;3.45;1.23;;;;;;;;;;4919646;28;20055;-68
2023/03/17 15:05:27;;;;;;;2.67;1.23;;;;;;;;;;4969882;28;20554;-60
2023/03/17 15:07:58;;;;;;;1.55;1.10;;;;;;;;;;4970542;28;20155;-62
2023/03/17 15:10:32;;;;;;;3.85;1.35;;;;;;;;;;4938591;28;20058;-67
2023/03/17 15:13:05;;;;;;;2.42;1.30;;;;;;;;;;4954346;28;20054;-63
2023/03/17 15:15:40;;;;;;;3.72;1.10;;;;;;;;;;4961016;28;20050;-62
2023/03/17 15:18:13;;;;;;;2.47;1.20;;;;;;;;;;5009438;28;20050;-63
2023/03/17 15:20:44;;;;;;;2.60;1.00;;;;;;;;;;5036095;28;20053;-64
2023/03/17 15:23:22;;;;;;;2.40;1.20;;;;;;;;;;5050602;28;20488;-67
2023/03/17 15:25:55;;;;;;;1.70;1.00;;;;;;;;;;5051183;28;20495;-62
2023/03/17 15:28:28;;;;;;;4.63;1.00;;;;;;;;;;5051062;28;20045;-60
2023/03/17 15:31:13;;;;;;;3.75;0.98;;;;;;;;;;5048887;28;20409;-62